Time;durP1;ratioP1;P1;durP2;ratioP2;P2;SDS_P1;SDS_P2;PMS_P1;PMS_P2;Temp;Humidity;BMP_temperature;BMP_pressure;BME280_temperature;BME280_humidity;BME280_pressure;Samples;Min_cycle;Max_cycle;Signal;HPM_P1;HPM_P2
2023/05/16 00:01:09;;;;;;;7.40;5.70;;;;;;;;;;5030883;28;20207;-83
2023/05/16 00:03:37;;;;;;;7.17;5.93;;;;;;;;;;5032023;28;20233;-82
2023/05/16 00:06:04;;;;;;;8.77;6.83;;;;;;;;;;5040200;28;20309;-83
2023/05/16 00:08:31;;;;;;;6.37;5.77;;;;;;;;;;5030666;28;20626;-83
2023/05/16 00:10:58;;;;;;;6.00;5.50;;;;;;;;;;5039360;28;20638;-83
2023/05/16 00:13:25;;;;;;;6.20;5.60;;;;;;;;;;5031747;28;20206;-83
2023/05/16 00:15:55;;;;;;;7.90;5.97;;;;;;;;;;5030568;28;20203;-83
2023/05/16 00:18:22;;;;;;;6.10;5.57;;;;;;;;;;5047219;28;20233;-83
2023/05/16 00:20:49;;;;;;;6.07;5.43;;;;;;;;;;5050080;28;20241;-83
2023/05/16 00:23:16;;;;;;;5.60;5.10;;;;;;;;;;5035674;28;20198;-83
2023/05/16 00:25:45;;;;;;;8.23;5.53;;;;;;;;;;5032511;28;20206;-83
2023/05/16 00:28:12;;;;;;;7.00;6.37;;;;;;;;;;5017642;28;20290;-83
2023/05/16 00:30:39;;;;;;;7.00;5.37;;;;;;;;;;5028931;28;20215;-83
2023/05/16 00:33:07;;;;;;;8.47;5.90;;;;;;;;;;5043132;28;20218;-82
2023/05/16 00:35:34;;;;;;;7.23;5.30;;;;;;;;;;5029923;28;20202;-83
2023/05/16 00:38:01;;;;;;;5.67;5.20;;;;;;;;;;5025566;28;20594;-83
2023/05/16 00:40:28;;;;;;;5.67;5.17;;;;;;;;;;5029864;28;20573;-83
2023/05/16 00:42:55;;;;;;;6.47;5.80;;;;;;;;;;5048095;28;20206;-83
2023/05/16 00:45:22;;;;;;;6.10;5.50;;;;;;;;;;5031296;28;20289;-83
2023/05/16 00:47:49;;;;;;;8.50;5.90;;;;;;;;;;5036583;28;20699;-83
2023/05/16 00:50:18;;;;;;;5.87;5.33;;;;;;;;;;5035373;28;20267;-85
2023/05/16 00:52:45;;;;;;;6.07;5.50;;;;;;;;;;5016661;28;20703;-83
2023/05/16 00:55:12;;;;;;;5.70;5.20;;;;;;;;;;5042515;28;20217;-84
2023/05/16 00:57:40;;;;;;;6.77;4.97;;;;;;;;;;5036855;28;20237;-83
2023/05/16 01:00:10;;;;;;;5.90;5.40;;;;;;;;;;5036118;28;20211;-83
2023/05/16 01:02:38;;;;;;;5.87;4.93;;;;;;;;;;5049495;28;20733;-83
2023/05/16 01:05:06;;;;;;;5.67;5.17;;;;;;;;;;5049038;28;20642;-83
2023/05/16 01:07:35;;;;;;;5.37;4.93;;;;;;;;;;5049755;28;20201;-82
2023/05/16 01:10:02;;;;;;;5.67;4.93;;;;;;;;;;5036058;28;20207;-82
2023/05/16 01:12:37;;;;;;;6.10;5.50;;;;;;;;;;5039807;28;20198;-83
2023/05/16 01:15:08;;;;;;;6.47;5.87;;;;;;;;;;5029348;28;20744;-83
2023/05/16 01:17:44;;;;;;;6.43;5.93;;;;;;;;;;5040634;28;20206;-83
2023/05/16 01:20:15;;;;;;;5.17;4.77;;;;;;;;;;5036263;28;20217;-83
2023/05/16 01:22:53;;;;;;;7.07;5.97;;;;;;;;;;5035688;28;20206;-83
2023/05/16 01:25:31;;;;;;;5.77;4.80;;;;;;;;;;5037603;28;20236;-83
2023/05/16 01:27:59;;;;;;;5.90;5.30;;;;;;;;;;5045547;28;20640;-83
2023/05/16 01:30:26;;;;;;;5.67;5.17;;;;;;;;;;5039247;28;20221;-83
2023/05/16 01:32:53;;;;;;;6.17;5.23;;;;;;;;;;5048697;28;20202;-83
2023/05/16 01:35:20;;;;;;;5.90;5.37;;;;;;;;;;5038489;27;20218;-83
2023/05/16 01:37:50;;;;;;;6.63;5.53;;;;;;;;;;5018710;28;20233;-83
2023/05/16 01:40:21;;;;;;;6.37;5.87;;;;;;;;;;5048743;28;20206;-83
2023/05/16 01:42:52;;;;;;;6.20;5.00;;;;;;;;;;5043585;28;20267;-83
2023/05/16 01:45:24;;;;;;;5.33;4.93;;;;;;;;;;5041113;28;20242;-84
2023/05/16 01:47:55;;;;;;;5.83;5.33;;;;;;;;;;5035316;28;20770;-83
2023/05/16 01:50:24;;;;;;;7.17;6.00;;;;;;;;;;5034695;28;20203;-83
2023/05/16 01:52:53;;;;;;;7.77;5.43;;;;;;;;;;5034544;28;20288;-83
2023/05/16 01:55:24;;;;;;;6.37;5.70;;;;;;;;;;5035566;28;20203;-84
2023/05/16 01:57:52;;;;;;;6.30;5.80;;;;;;;;;;5039209;28;20639;-84
2023/05/16 02:00:21;;;;;;;6.53;5.63;;;;;;;;;;5028570;28;20199;-83
2023/05/16 02:02:48;;;;;;;5.70;5.20;;;;;;;;;;5029179;28;20211;-83
2023/05/16 02:05:15;;;;;;;7.73;5.60;;;;;;;;;;5044763;28;20233;-83
2023/05/16 02:07:43;;;;;;;6.60;4.43;;;;;;;;;;5047405;28;20213;-83
2023/05/16 02:10:11;;;;;;;6.20;5.70;;;;;;;;;;5047815;28;20230;-83
2023/05/16 02:12:38;;;;;;;8.13;5.57;;;;;;;;;;5038028;28;20301;-84
2023/05/16 02:15:05;;;;;;;6.67;6.17;;;;;;;;;;5041835;28;20741;-83
2023/05/16 02:17:34;;;;;;;5.73;5.27;;;;;;;;;;5016344;28;20690;-84
2023/05/16 02:20:05;;;;;;;6.70;5.40;;;;;;;;;;5040049;28;20215;-84
2023/05/16 02:22:32;;;;;;;5.80;5.23;;;;;;;;;;5028670;28;20613;-83
2023/05/16 02:25:01;;;;;;;5.93;5.33;;;;;;;;;;5033064;28;20668;-83
2023/05/16 02:27:29;;;;;;;5.90;5.37;;;;;;;;;;5035915;28;20202;-83
2023/05/16 02:29:56;;;;;;;6.83;6.07;;;;;;;;;;5047294;28;20758;-83
2023/05/16 02:32:23;;;;;;;7.10;6.50;;;;;;;;;;5035430;27;20210;-83
2023/05/16 02:34:52;;;;;;;9.00;6.70;;;;;;;;;;5040828;28;20213;-83
2023/05/16 02:37:18;;;;;;;6.07;5.57;;;;;;;;;;5041959;28;20684;-83
2023/05/16 02:39:46;;;;;;;10.80;8.27;;;;;;;;;;5041281;28;20214;-83
2023/05/16 02:42:13;;;;;;;8.90;7.87;;;;;;;;;;5010613;28;20214;-83
2023/05/16 02:44:43;;;;;;;10.03;7.13;;;;;;;;;;5035056;28;20241;-83
2023/05/16 02:47:10;;;;;;;8.77;6.73;;;;;;;;;;5047225;28;20245;-83
2023/05/16 02:49:37;;;;;;;7.67;5.83;;;;;;;;;;5027544;28;20634;-84
2023/05/16 02:52:06;;;;;;;6.03;5.27;;;;;;;;;;5042762;28;20620;-83
2023/05/16 02:54:33;;;;;;;6.53;5.93;;;;;;;;;;5047318;28;20254;-83
2023/05/16 02:57:00;;;;;;;6.40;5.80;;;;;;;;;;5031965;28;20685;-83
2023/05/16 02:59:27;;;;;;;16.00;7.63;;;;;;;;;;5026966;28;20357;-83
2023/05/16 03:01:54;;;;;;;7.17;6.43;;;;;;;;;;5029394;28;20210;-83
2023/05/16 03:04:21;;;;;;;5.53;5.03;;;;;;;;;;5039206;28;20773;-86
2023/05/16 03:06:49;;;;;;;7.60;6.07;;;;;;;;;;5031534;28;20211;-83
2023/05/16 03:09:19;;;;;;;7.93;6.87;;;;;;;;;;5034177;28;20213;-83
2023/05/16 03:11:46;;;;;;;7.00;6.30;;;;;;;;;;5048578;28;20241;-83
2023/05/16 03:14:13;;;;;;;9.30;6.43;;;;;;;;;;5040290;28;20216;-83
2023/05/16 03:16:42;;;;;;;7.00;6.40;;;;;;;;;;5029772;28;20203;-83
2023/05/16 03:19:09;;;;;;;9.63;6.13;;;;;;;;;;5043539;28;20206;-83
2023/05/16 03:21:36;;;;;;;7.10;5.67;;;;;;;;;;5033296;28;20213;-82
2023/05/16 03:24:03;;;;;;;6.00;5.13;;;;;;;;;;5037368;28;20207;-83
2023/05/16 03:26:31;;;;;;;6.57;5.97;;;;;;;;;;5031252;28;20214;-82
2023/05/16 03:28:58;;;;;;;7.73;6.20;;;;;;;;;;5043972;27;20279;-81
2023/05/16 03:31:25;;;;;;;7.40;6.67;;;;;;;;;;5035795;28;20289;-81
2023/05/16 03:33:52;;;;;;;6.90;6.23;;;;;;;;;;5039285;28;20207;-82
2023/05/16 03:36:21;;;;;;;8.30;6.47;;;;;;;;;;5047843;28;20629;-81
2023/05/16 03:38:48;;;;;;;7.17;5.93;;;;;;;;;;5039553;28;20588;-81
2023/05/16 03:41:15;;;;;;;8.70;6.73;;;;;;;;;;5034402;28;20263;-81
2023/05/16 03:43:43;;;;;;;6.17;5.67;;;;;;;;;;5038266;28;20210;-82
2023/05/16 03:46:10;;;;;;;9.10;7.23;;;;;;;;;;5043426;28;20231;-82
2023/05/16 03:48:37;;;;;;;6.90;6.30;;;;;;;;;;5042907;28;20210;-81
2023/05/16 03:51:03;;;;;;;7.27;6.50;;;;;;;;;;5039907;28;20203;-82
2023/05/16 03:53:30;;;;;;;6.77;6.10;;;;;;;;;;5046194;28;20213;-82
2023/05/16 03:55:58;;;;;;;7.00;6.50;;;;;;;;;;5050192;27;20218;-82
2023/05/16 03:58:24;;;;;;;8.73;6.53;;;;;;;;;;5031594;28;20206;-82
2023/05/16 04:00:53;;;;;;;15.27;11.63;;;;;;;;;;5015850;28;20295;-82
2023/05/16 04:03:26;;;;;;;21.80;17.23;;;;;;;;;;5030757;28;20206;-82
2023/05/16 04:05:53;;;;;;;14.80;12.70;;;;;;;;;;5040090;28;20233;-83
2023/05/16 04:08:20;;;;;;;11.93;10.70;;;;;;;;;;5035499;28;20214;-82
2023/05/16 04:10:47;;;;;;;10.37;9.40;;;;;;;;;;5041577;28;20279;-82
2023/05/16 04:13:15;;;;;;;9.27;8.30;;;;;;;;;;5028950;28;20244;-82
2023/05/16 04:15:41;;;;;;;8.43;7.63;;;;;;;;;;5042440;28;20238;-82
2023/05/16 04:18:10;;;;;;;9.33;7.67;;;;;;;;;;5043050;28;20258;-82
2023/05/16 04:20:37;;;;;;;7.47;6.87;;;;;;;;;;5041907;28;20203;-82
2023/05/16 04:23:04;;;;;;;7.77;6.57;;;;;;;;;;5043018;28;20213;-84
2023/05/16 04:25:32;;;;;;;6.93;6.33;;;;;;;;;;5016966;28;20219;-84
2023/05/16 04:27:59;;;;;;;7.10;6.40;;;;;;;;;;4999449;28;20210;-83
2023/05/16 04:30:25;;;;;;;11.23;6.93;;;;;;;;;;5049225;27;20668;-83
2023/05/16 04:32:52;;;;;;;11.77;7.37;;;;;;;;;;5048517;28;20202;-83
2023/05/16 04:35:21;;;;;;;10.30;7.23;;;;;;;;;;5029762;28;20673;-83
2023/05/16 04:37:48;;;;;;;8.73;7.73;;;;;;;;;;5029591;28;20298;-83
2023/05/16 04:40:16;;;;;;;9.93;7.23;;;;;;;;;;5036525;28;20621;-83
2023/05/16 04:42:43;;;;;;;10.40;6.93;;;;;;;;;;5036025;28;20686;-83
2023/05/16 04:45:13;;;;;;;8.73;7.80;;;;;;;;;;5047778;28;20222;-83
2023/05/16 04:47:41;;;;;;;8.03;7.33;;;;;;;;;;5025081;28;20274;-83
2023/05/16 04:50:09;;;;;;;6.90;5.97;;;;;;;;;;5033706;28;20206;-84
2023/05/16 04:52:37;;;;;;;7.70;6.60;;;;;;;;;;5035708;28;20680;-83
2023/05/16 04:55:04;;;;;;;7.60;6.93;;;;;;;;;;5049754;28;20240;-83
2023/05/16 04:57:31;;;;;;;7.73;6.90;;;;;;;;;;5049228;28;20573;-83
2023/05/16 04:59:58;;;;;;;8.33;7.53;;;;;;;;;;5049797;28;20206;-83
2023/05/16 05:02:25;;;;;;;10.80;9.80;;;;;;;;;;5048680;28;20201;-83
2023/05/16 05:04:52;;;;;;;8.50;7.80;;;;;;;;;;5049020;28;20282;-83
2023/05/16 05:07:19;;;;;;;8.10;7.30;;;;;;;;;;5028999;28;20634;-83
2023/05/16 05:09:47;;;;;;;8.07;7.37;;;;;;;;;;5029624;28;20198;-84
2023/05/16 05:12:14;;;;;;;7.00;6.40;;;;;;;;;;5041929;28;20214;-83
2023/05/16 05:14:44;;;;;;;8.30;7.47;;;;;;;;;;5029298;28;20211;-83
2023/05/16 05:17:10;;;;;;;9.00;7.70;;;;;;;;;;5036534;28;20607;-83
2023/05/16 05:19:37;;;;;;;8.00;7.20;;;;;;;;;;5035919;27;20214;-83
2023/05/16 05:22:04;;;;;;;8.17;6.67;;;;;;;;;;5048624;28;20202;-82
2023/05/16 05:24:31;;;;;;;7.10;6.50;;;;;;;;;;5048705;28;20197;-83
2023/05/16 05:26:59;;;;;;;7.40;6.80;;;;;;;;;;5039877;28;20227;-84
2023/05/16 05:29:26;;;;;;;7.87;7.23;;;;;;;;;;5042099;28;20251;-83
2023/05/16 05:31:53;;;;;;;11.53;10.33;;;;;;;;;;5037526;28;20285;-83
2023/05/16 05:34:20;;;;;;;13.23;12.03;;;;;;;;;;5048509;28;20203;-83
2023/05/16 05:36:46;;;;;;;16.57;14.53;;;;;;;;;;5039982;28;20211;-83
2023/05/16 05:39:13;;;;;;;10.40;9.50;;;;;;;;;;5044642;28;20691;-83
2023/05/16 05:41:40;;;;;;;9.73;8.93;;;;;;;;;;5049092;27;20733;-83
2023/05/16 05:44:08;;;;;;;12.20;7.10;;;;;;;;;;5035417;28;20585;-83
2023/05/16 05:46:35;;;;;;;8.53;7.73;;;;;;;;;;5048459;28;20245;-83
2023/05/16 05:49:02;;;;;;;6.27;5.23;;;;;;;;;;5048514;28;20285;-84
2023/05/16 05:51:28;;;;;;;9.70;5.93;;;;;;;;;;5039141;28;20346;-85
2023/05/16 05:53:56;;;;;;;6.63;6.03;;;;;;;;;;5042105;28;20198;-83
2023/05/16 05:56:23;;;;;;;7.90;6.03;;;;;;;;;;5038647;28;20273;-83
2023/05/16 05:58:50;;;;;;;8.60;7.13;;;;;;;;;;5035073;28;20203;-83
2023/05/16 06:01:19;;;;;;;8.20;6.50;;;;;;;;;;5048083;28;20275;-83
2023/05/16 06:03:46;;;;;;;5.97;5.10;;;;;;;;;;5048011;28;20203;-83
2023/05/16 06:06:14;;;;;;;6.80;6.20;;;;;;;;;;5048240;28;20221;-82
2023/05/16 06:08:44;;;;;;;7.07;5.97;;;;;;;;;;5035035;28;20208;-83
2023/05/16 06:11:11;;;;;;;5.90;5.37;;;;;;;;;;5036262;28;20216;-83
2023/05/16 06:13:37;;;;;;;8.40;5.43;;;;;;;;;;5041555;28;20215;-82
2023/05/16 06:16:05;;;;;;;6.30;5.53;;;;;;;;;;5039793;28;20210;-83
2023/05/16 06:18:33;;;;;;;11.67;10.47;;;;;;;;;;5034382;28;20313;-83
2023/05/16 06:21:00;;;;;;;6.57;5.93;;;;;;;;;;5036363;28;20277;-85
2023/05/16 06:23:26;;;;;;;5.87;5.37;;;;;;;;;;5041434;28;20591;-83
2023/05/16 06:25:53;;;;;;;8.27;5.60;;;;;;;;;;5040429;28;20274;-82
2023/05/16 06:28:20;;;;;;;5.30;4.90;;;;;;;;;;5034408;28;20201;-83
2023/05/16 06:30:47;;;;;;;5.87;5.20;;;;;;;;;;5048141;28;20209;-82
2023/05/16 06:33:14;;;;;;;8.33;5.13;;;;;;;;;;5028412;28;20275;-82
2023/05/16 06:35:42;;;;;;;7.63;4.80;;;;;;;;;;5041243;28;20680;-83
2023/05/16 06:38:09;;;;;;;4.57;4.10;;;;;;;;;;5047659;28;20205;-82
2023/05/16 06:40:36;;;;;;;4.97;4.57;;;;;;;;;;5047115;28;20205;-82
2023/05/16 06:43:03;;;;;;;8.27;4.90;;;;;;;;;;5047618;28;20214;-83
2023/05/16 06:45:30;;;;;;;7.20;4.30;;;;;;;;;;5046835;28;20229;-83
2023/05/16 06:47:56;;;;;;;4.53;4.00;;;;;;;;;;5028383;28;20206;-82
2023/05/16 06:50:23;;;;;;;4.90;3.90;;;;;;;;;;5040883;28;20659;-83
2023/05/16 06:52:51;;;;;;;6.77;4.20;;;;;;;;;;5027886;28;20210;-82
2023/05/16 06:55:18;;;;;;;4.40;4.00;;;;;;;;;;5028153;28;20199;-82
2023/05/16 06:57:45;;;;;;;3.73;3.33;;;;;;;;;;5047438;28;20225;-82
2023/05/16 07:00:13;;;;;;;9.27;4.07;;;;;;;;;;5047075;28;20736;-81
2023/05/16 07:02:40;;;;;;;4.77;3.90;;;;;;;;;;5047694;28;20213;-82
2023/05/16 07:05:08;;;;;;;6.63;4.80;;;;;;;;;;5045305;28;20209;-82
2023/05/16 07:07:35;;;;;;;5.00;4.50;;;;;;;;;;5035666;28;20289;-83
2023/05/16 07:10:04;;;;;;;11.77;4.07;;;;;;;;;;5046987;28;20637;-82
2023/05/16 07:12:30;;;;;;;4.80;3.83;;;;;;;;;;5047542;28;20217;-82
2023/05/16 07:14:57;;;;;;;5.93;4.30;;;;;;;;;;5047000;28;20210;-82
2023/05/16 07:17:24;;;;;;;5.20;4.00;;;;;;;;;;5046814;28;20205;-81
2023/05/16 07:19:51;;;;;;;4.13;3.73;;;;;;;;;;5046968;28;20206;-82
2023/05/16 07:22:17;;;;;;;5.37;4.00;;;;;;;;;;5047377;28;20250;-82
2023/05/16 07:24:44;;;;;;;7.37;4.60;;;;;;;;;;5046599;28;20202;-82
2023/05/16 07:27:12;;;;;;;15.97;5.93;;;;;;;;;;5037634;28;20279;-82
2023/05/16 07:29:39;;;;;;;8.20;4.43;;;;;;;;;;5040090;28;20260;-82
2023/05/16 07:32:07;;;;;;;5.80;4.43;;;;;;;;;;5036896;28;20683;-82
2023/05/16 07:34:34;;;;;;;5.10;4.57;;;;;;;;;;5046511;28;20209;-84
2023/05/16 07:37:01;;;;;;;9.00;4.90;;;;;;;;;;5046707;28;20680;-82
2023/05/16 07:39:27;;;;;;;6.63;4.67;;;;;;;;;;5046506;28;20198;-82
2023/05/16 07:41:54;;;;;;;8.33;4.83;;;;;;;;;;5046458;28;20278;-82
2023/05/16 07:44:22;;;;;;;5.67;4.63;;;;;;;;;;5046516;28;20203;-82
2023/05/16 07:46:49;;;;;;;7.30;4.70;;;;;;;;;;5046515;28;20601;-82
2023/05/16 07:49:16;;;;;;;4.20;3.80;;;;;;;;;;5033939;28;20220;-82
2023/05/16 07:51:43;;;;;;;6.37;4.93;;;;;;;;;;5048821;28;20273;-82
2023/05/16 07:54:09;;;;;;;5.80;4.73;;;;;;;;;;5049991;28;20729;-82
2023/05/16 07:56:36;;;;;;;9.20;5.30;;;;;;;;;;5049994;28;20262;-83
2023/05/16 07:59:04;;;;;;;6.13;4.33;;;;;;;;;;5050596;28;20383;-81
2023/05/16 08:01:32;;;;;;;4.90;4.40;;;;;;;;;;5050090;28;20711;-81
2023/05/16 08:03:59;;;;;;;6.03;4.97;;;;;;;;;;5050088;28;20664;-82
2023/05/16 08:06:26;;;;;;;8.83;4.90;;;;;;;;;;5049659;28;20253;-81
2023/05/16 08:08:53;;;;;;;12.03;8.23;;;;;;;;;;5050144;28;20575;-82
2023/05/16 08:11:21;;;;;;;7.03;6.27;;;;;;;;;;5049531;28;20288;-82
2023/05/16 08:13:48;;;;;;;9.97;6.93;;;;;;;;;;5030091;28;20205;-82
2023/05/16 08:16:14;;;;;;;7.07;5.30;;;;;;;;;;5043777;28;20210;-82
2023/05/16 08:18:43;;;;;;;7.03;5.33;;;;;;;;;;5049563;28;20684;-82
2023/05/16 08:21:09;;;;;;;9.47;5.43;;;;;;;;;;5049275;28;20255;-82
2023/05/16 08:23:36;;;;;;;9.40;5.80;;;;;;;;;;5050056;28;20198;-82
2023/05/16 08:26:05;;;;;;;7.93;4.73;;;;;;;;;;5048998;28;20221;-81
2023/05/16 08:28:32;;;;;;;8.43;4.93;;;;;;;;;;5049738;28;20206;-82
2023/05/16 08:30:59;;;;;;;4.97;4.40;;;;;;;;;;5036282;28;20203;-81
2023/05/16 08:33:25;;;;;;;5.20;4.70;;;;;;;;;;5049807;28;20221;-83
2023/05/16 08:35:54;;;;;;;7.00;4.73;;;;;;;;;;5049393;28;20202;-81
2023/05/16 08:38:20;;;;;;;6.27;4.33;;;;;;;;;;5049552;28;20201;-81
2023/05/16 08:40:47;;;;;;;6.20;4.87;;;;;;;;;;5049073;28;20204;-81
2023/05/16 08:43:14;;;;;;;5.30;4.80;;;;;;;;;;5049714;28;20284;-82
2023/05/16 08:45:41;;;;;;;10.03;5.50;;;;;;;;;;5048693;28;20703;-81
2023/05/16 08:48:08;;;;;;;6.97;5.50;;;;;;;;;;5049419;28;20274;-81
2023/05/16 08:50:35;;;;;;;5.83;5.40;;;;;;;;;;5048899;28;20241;-81
2023/05/16 08:53:06;;;;;;;6.67;6.03;;;;;;;;;;5049417;28;20209;-81
2023/05/16 08:55:33;;;;;;;6.37;5.20;;;;;;;;;;5045356;28;20199;-81
2023/05/16 08:58:00;;;;;;;6.47;5.93;;;;;;;;;;5029510;28;20207;-81
2023/05/16 09:00:27;;;;;;;5.63;5.13;;;;;;;;;;5045718;28;20267;-82
2023/05/16 09:02:54;;;;;;;5.70;5.03;;;;;;;;;;5049064;28;20666;-81
2023/05/16 09:05:22;;;;;;;6.47;4.43;;;;;;;;;;5049014;28;20202;-81
2023/05/16 09:07:49;;;;;;;5.80;5.13;;;;;;;;;;5048849;28;20225;-81
2023/05/16 09:10:18;;;;;;;5.97;4.70;;;;;;;;;;5048572;28;20198;-81
2023/05/16 09:12:45;;;;;;;5.83;5.10;;;;;;;;;;5048783;28;20228;-81
2023/05/16 09:15:12;;;;;;;5.60;5.10;;;;;;;;;;5048719;28;20205;-81
2023/05/16 09:17:40;;;;;;;5.87;4.93;;;;;;;;;;5037146;28;20737;-81
2023/05/16 09:20:12;;;;;;;6.43;4.20;;;;;;;;;;5046987;28;20198;-81
2023/05/16 09:22:39;;;;;;;14.53;7.90;;;;;;;;;;5048706;28;20194;-80
2023/05/16 09:25:06;;;;;;;13.87;8.00;;;;;;;;;;5042779;28;20640;-81
2023/05/16 09:27:34;;;;;;;39.97;27.50;;;;;;;;;;5041035;28;20715;-81
2023/05/16 09:30:01;;;;;;;85.60;45.93;;;;;;;;;;5035419;28;20220;-81
2023/05/16 09:32:28;;;;;;;21.43;17.30;;;;;;;;;;5048467;28;20685;-83
2023/05/16 09:34:57;;;;;;;13.47;11.37;;;;;;;;;;5022815;28;20206;-81
2023/05/16 09:37:24;;;;;;;5.53;4.73;;;;;;;;;;5048430;28;20198;-81
2023/05/16 09:39:52;;;;;;;7.30;5.87;;;;;;;;;;5048131;28;20671;-81
2023/05/16 09:42:20;;;;;;;5.03;4.03;;;;;;;;;;5048505;28;20202;-81
2023/05/16 09:44:49;;;;;;;12.23;7.83;;;;;;;;;;5048539;28;20198;-81
2023/05/16 09:47:16;;;;;;;10.03;8.73;;;;;;;;;;5047684;28;20791;-81
2023/05/16 09:49:44;;;;;;;10.73;9.43;;;;;;;;;;5048039;28;20210;-81
2023/05/16 09:52:10;;;;;;;16.90;14.33;;;;;;;;;;5047720;28;20233;-81
2023/05/16 09:54:37;;;;;;;98.77;54.63;;;;;;;;;;5048217;28;20202;-81
2023/05/16 09:57:04;;;;;;;122.50;64.90;;;;;;;;;;5045858;28;20202;-81
2023/05/16 09:59:32;;;;;;;58.33;37.20;;;;;;;;;;5028336;28;20203;-81
2023/05/16 10:02:00;;;;;;;11.97;9.70;;;;;;;;;;5043032;28;20209;-81
2023/05/16 10:04:27;;;;;;;7.57;6.87;;;;;;;;;;5048042;28;20198;-81
2023/05/16 10:06:56;;;;;;;5.30;4.80;;;;;;;;;;5047706;28;20234;-80
2023/05/16 10:09:23;;;;;;;7.33;4.30;;;;;;;;;;5048461;28;20576;-81
2023/05/16 10:11:52;;;;;;;4.77;4.13;;;;;;;;;;5047493;28;20254;-81
2023/05/16 10:14:19;;;;;;;8.70;5.07;;;;;;;;;;5037795;28;20203;-81
2023/05/16 10:16:48;;;;;;;5.47;4.20;;;;;;;;;;5044511;28;20266;-81
2023/05/16 10:19:17;;;;;;;4.40;3.70;;;;;;;;;;5047846;28;20212;-81
2023/05/16 10:21:50;;;;;;;8.17;4.60;;;;;;;;;;5047453;28;20194;-82
2023/05/16 10:24:20;;;;;;;8.80;4.77;;;;;;;;;;5047920;28;20216;-81
2023/05/16 10:26:47;;;;;;;6.53;4.07;;;;;;;;;;5047461;28;20230;-81
2023/05/16 10:29:14;;;;;;;10.03;4.23;;;;;;;;;;5048503;28;20327;-81
2023/05/16 10:31:41;;;;;;;6.73;4.43;;;;;;;;;;5047815;28;20613;-81
2023/05/16 10:34:09;;;;;;;10.03;4.90;;;;;;;;;;5047691;28;21260;-81
2023/05/16 10:36:37;;;;;;;7.77;4.87;;;;;;;;;;5021578;28;20206;-80
2023/05/16 10:39:04;;;;;;;4.67;4.20;;;;;;;;;;5047782;28;20730;-80
2023/05/16 10:41:33;;;;;;;6.50;4.27;;;;;;;;;;5047803;28;20258;-81
2023/05/16 10:44:01;;;;;;;10.87;6.57;;;;;;;;;;5034841;28;20229;-80
2023/05/16 10:46:29;;;;;;;10.43;4.47;;;;;;;;;;5038645;28;20249;-81
2023/05/16 10:48:55;;;;;;;4.87;4.10;;;;;;;;;;5042390;28;20286;-81
2023/05/16 10:51:38;;;;;;;6.27;4.60;;;;;;;;;;5047826;28;20198;-81
2023/05/16 10:54:06;;;;;;;9.43;3.90;;;;;;;;;;5047765;28;20206;-81
2023/05/16 10:56:33;;;;;;;6.07;4.13;;;;;;;;;;5046941;28;20198;-81
2023/05/16 10:59:00;;;;;;;6.03;3.80;;;;;;;;;;5047505;28;20676;-81
2023/05/16 11:01:28;;;;;;;4.43;3.80;;;;;;;;;;5047491;28;20206;-81
2023/05/16 11:04:07;;;;;;;6.77;4.10;;;;;;;;;;5047305;28;20201;-81
2023/05/16 11:06:43;;;;;;;11.70;8.63;;;;;;;;;;5033585;28;20290;-81
2023/05/16 11:09:20;;;;;;;13.23;10.37;;;;;;;;;;5023609;28;20229;-81
2023/05/16 11:11:53;;;;;;;10.53;5.30;;;;;;;;;;5047250;28;20198;-81
2023/05/16 11:14:21;;;;;;;9.17;5.53;;;;;;;;;;5047318;28;20198;-81
2023/05/16 11:16:50;;;;;;;21.10;12.50;;;;;;;;;;5046672;28;20232;-81
2023/05/16 11:19:29;;;;;;;29.37;20.03;;;;;;;;;;5047713;28;20305;-82
2023/05/16 11:22:14;;;;;;;24.27;17.00;;;;;;;;;;5046946;28;20301;-81
2023/05/16 11:24:49;;;;;;;12.53;8.80;;;;;;;;;;5046934;28;20194;-81
2023/05/16 11:27:21;;;;;;;7.40;5.77;;;;;;;;;;5049769;28;20707;-80
2023/05/16 11:29:48;;;;;;;5.57;4.43;;;;;;;;;;5050480;28;20202;-81
2023/05/16 11:32:19;;;;;;;6.83;3.90;;;;;;;;;;5050635;28;20646;-81
2023/05/16 11:34:47;;;;;;;8.97;4.13;;;;;;;;;;5050123;28;20208;-81
2023/05/16 11:37:15;;;;;;;12.47;4.13;;;;;;;;;;5050883;28;20205;-80
2023/05/16 11:39:42;;;;;;;9.57;4.40;;;;;;;;;;5050924;28;20237;-80
2023/05/16 11:42:09;;;;;;;9.20;3.87;;;;;;;;;;5050255;28;20198;-81
2023/05/16 11:44:36;;;;;;;4.47;2.80;;;;;;;;;;5050172;28;20209;-81
2023/05/16 11:47:03;;;;;;;7.97;4.13;;;;;;;;;;5049829;28;20237;-81
2023/05/16 11:49:30;;;;;;;6.40;3.47;;;;;;;;;;5023858;28;20277;-81
2023/05/16 11:51:57;;;;;;;6.40;3.63;;;;;;;;;;5049745;27;20590;-81
2023/05/16 11:54:25;;;;;;;5.47;2.90;;;;;;;;;;5049936;28;20212;-81
2023/05/16 11:56:52;;;;;;;4.23;2.80;;;;;;;;;;5049619;28;20202;-81
2023/05/16 11:59:19;;;;;;;6.13;3.17;;;;;;;;;;5050391;28;20640;-81
2023/05/16 12:01:47;;;;;;;6.23;3.00;;;;;;;;;;5036544;28;20332;-81
2023/05/16 12:04:16;;;;;;;5.27;3.70;;;;;;;;;;5050329;28;20668;-81
2023/05/16 12:06:44;;;;;;;11.87;3.20;;;;;;;;;;5048536;28;20205;-80
2023/05/16 12:09:13;;;;;;;5.80;3.33;;;;;;;;;;5037897;28;20238;-81
2023/05/16 12:11:42;;;;;;;7.27;3.70;;;;;;;;;;5049185;28;20767;-80
2023/05/16 12:14:11;;;;;;;8.87;3.47;;;;;;;;;;5050369;28;20210;-81
2023/05/16 12:16:41;;;;;;;6.30;3.50;;;;;;;;;;5048695;28;20206;-81
2023/05/16 12:19:08;;;;;;;8.50;3.73;;;;;;;;;;5049917;28;20202;-81
2023/05/16 12:21:35;;;;;;;7.37;3.33;;;;;;;;;;5036506;28;20198;-81
2023/05/16 12:24:02;;;;;;;7.77;3.73;;;;;;;;;;5049681;28;20680;-81
2023/05/16 12:26:30;;;;;;;8.47;3.60;;;;;;;;;;5036129;28;20259;-81
2023/05/16 12:29:02;;;;;;;13.20;5.07;;;;;;;;;;5049708;28;20244;-81
2023/05/16 12:31:30;;;;;;;4.47;3.93;;;;;;;;;;5048577;28;20259;-81
2023/05/16 12:33:57;;;;;;;6.37;3.67;;;;;;;;;;5049995;28;20201;-81
2023/05/16 12:36:25;;;;;;;12.33;3.67;;;;;;;;;;5049022;28;20206;-80
2023/05/16 12:38:52;;;;;;;6.80;3.37;;;;;;;;;;5049877;28;20665;-80
2023/05/16 12:41:20;;;;;;;4.73;3.63;;;;;;;;;;5042960;28;20203;-80
2023/05/16 12:43:47;;;;;;;11.00;4.97;;;;;;;;;;5042567;28;20198;-80
2023/05/16 12:46:16;;;;;;;8.30;3.40;;;;;;;;;;5048779;28;20225;-80
2023/05/16 12:48:43;;;;;;;4.47;3.33;;;;;;;;;;5049527;28;20324;-81
2023/05/16 12:51:13;;;;;;;5.40;4.10;;;;;;;;;;5022819;28;20668;-81
2023/05/16 12:53:45;;;;;;;10.77;3.50;;;;;;;;;;5049305;28;20236;-81
2023/05/16 12:56:12;;;;;;;6.40;4.93;;;;;;;;;;5048955;28;20251;-80
2023/05/16 12:58:39;;;;;;;7.73;5.27;;;;;;;;;;5049213;28;20210;-81
2023/05/16 13:01:06;;;;;;;8.33;7.53;;;;;;;;;;5049294;28;20221;-80
2023/05/16 13:03:35;;;;;;;17.47;12.43;;;;;;;;;;5048071;28;20209;-81
2023/05/16 13:06:02;;;;;;;6.07;5.57;;;;;;;;;;5048748;28;20216;-80
2023/05/16 13:08:29;;;;;;;6.83;5.17;;;;;;;;;;5048867;28;20232;-81
2023/05/16 13:10:59;;;;;;;9.17;6.13;;;;;;;;;;5048658;28;20206;-81
2023/05/16 13:13:26;;;;;;;9.70;4.23;;;;;;;;;;5035824;28;20286;-81
2023/05/16 13:15:53;;;;;;;8.00;5.67;;;;;;;;;;5048621;28;20202;-81
2023/05/16 13:18:20;;;;;;;3.53;3.23;;;;;;;;;;5048910;28;20743;-81
2023/05/16 13:20:48;;;;;;;4.67;3.57;;;;;;;;;;5048676;28;20210;-81
2023/05/16 13:23:14;;;;;;;5.63;3.90;;;;;;;;;;5048813;28;20225;-81
2023/05/16 13:25:41;;;;;;;8.10;6.43;;;;;;;;;;5048018;28;20272;-81
2023/05/16 13:28:08;;;;;;;8.97;5.77;;;;;;;;;;5048492;28;20233;-81
2023/05/16 13:30:35;;;;;;;15.37;6.00;;;;;;;;;;5048498;28;20637;-81
2023/05/16 13:33:01;;;;;;;9.10;5.30;;;;;;;;;;5048511;28;20691;-81
2023/05/16 13:35:28;;;;;;;6.53;5.10;;;;;;;;;;5048357;28;20206;-81
2023/05/16 13:37:56;;;;;;;11.60;5.70;;;;;;;;;;5048813;28;20209;-82
2023/05/16 13:40:23;;;;;;;9.37;6.33;;;;;;;;;;5036407;28;20202;-81
2023/05/16 13:42:52;;;;;;;16.30;7.53;;;;;;;;;;5047573;28;20251;-81
2023/05/16 13:45:19;;;;;;;10.07;7.37;;;;;;;;;;5048408;28;20288;-81
2023/05/16 13:47:48;;;;;;;5.90;4.00;;;;;;;;;;5047546;28;20728;-81
2023/05/16 13:50:15;;;;;;;13.40;6.70;;;;;;;;;;5048110;28;20210;-81
2023/05/16 13:52:42;;;;;;;18.87;9.57;;;;;;;;;;5047839;28;20209;-81
2023/05/16 13:55:11;;;;;;;13.57;8.07;;;;;;;;;;5047801;28;20217;-81
2023/05/16 13:57:38;;;;;;;13.50;8.17;;;;;;;;;;5023476;28;20225;-81
2023/05/16 14:00:11;;;;;;;9.80;6.83;;;;;;;;;;5048096;28;20743;-81
2023/05/16 14:02:38;;;;;;;13.63;7.60;;;;;;;;;;5048106;28;20209;-81
2023/05/16 14:05:05;;;;;;;14.30;8.00;;;;;;;;;;5048496;28;20202;-81
2023/05/16 14:07:32;;;;;;;11.50;7.27;;;;;;;;;;5048112;28;20257;-81
2023/05/16 14:09:59;;;;;;;10.87;7.03;;;;;;;;;;5045267;28;20210;-81
2023/05/16 14:12:27;;;;;;;9.20;7.77;;;;;;;;;;5037387;28;20205;-81
2023/05/16 14:14:54;;;;;;;9.43;6.97;;;;;;;;;;5048461;28;20266;-80
2023/05/16 14:17:21;;;;;;;11.40;6.73;;;;;;;;;;5048183;28;20572;-81
2023/05/16 14:19:48;;;;;;;4.80;4.30;;;;;;;;;;5047754;28;20209;-81
2023/05/16 14:22:14;;;;;;;7.00;4.40;;;;;;;;;;5047972;28;20198;-81
2023/05/16 14:24:41;;;;;;;6.83;4.27;;;;;;;;;;5048062;28;20202;-81
2023/05/16 14:27:08;;;;;;;7.40;4.30;;;;;;;;;;5047772;28;20210;-81
2023/05/16 14:29:37;;;;;;;9.80;4.33;;;;;;;;;;5047673;28;20225;-81
2023/05/16 14:32:05;;;;;;;8.23;3.60;;;;;;;;;;5047553;28;20696;-81
2023/05/16 14:34:32;;;;;;;8.57;3.90;;;;;;;;;;5047541;28;20210;-81
2023/05/16 14:37:00;;;;;;;11.30;4.20;;;;;;;;;;5047775;28;20209;-82
2023/05/16 14:39:27;;;;;;;3.73;3.30;;;;;;;;;;5046976;28;20676;-80
2023/05/16 14:41:53;;;;;;;5.10;2.70;;;;;;;;;;5047518;28;20284;-81
2023/05/16 14:44:23;;;;;;;6.57;3.17;;;;;;;;;;5047412;28;20752;-81